Time;durP1;ratioP1;P1;durP2;ratioP2;P2;SDS_P1;SDS_P2;PMS_P1;PMS_P2;Temp;Humidity;BMP_temperature;BMP_pressure;BME280_temperature;BME280_humidity;BME280_pressure;Samples;Min_cycle;Max_cycle;Signal;HPM_P1;HPM_P2
2022/03/03 00:01:21;;;;;;;42.67;22.33;;;0.60;99.90;;;;;;5023194;28;20210;-65
2022/03/03 00:04:27;;;;;;;43.90;21.93;;;0.60;99.90;;;;;;5025268;28;20247;-65
2022/03/03 00:07:34;;;;;;;39.43;21.60;;;0.50;99.90;;;;;;5025082;28;20733;-65
2022/03/03 00:10:04;;;;;;;46.13;23.90;;;0.40;99.90;;;;;;5020869;28;20194;-65
2022/03/03 00:12:35;;;;;;;43.57;22.17;;;0.40;99.90;;;;;;5028157;28;20723;-65
2022/03/03 00:15:04;;;;;;;51.20;22.87;;;0.40;99.90;;;;;;5029991;28;20201;-65
2022/03/03 00:17:33;;;;;;;44.77;23.10;;;0.30;99.90;;;;;;5025643;28;20198;-65
2022/03/03 00:20:01;;;;;;;55.63;26.00;;;0.30;99.90;;;;;;5026045;28;20682;-65
2022/03/03 00:22:30;;;;;;;47.53;24.80;;;0.30;99.90;;;;;;5019343;28;20202;-65
2022/03/03 00:25:00;;;;;;;52.47;24.53;;;0.30;99.90;;;;;;5028642;28;20285;-65
2022/03/03 00:27:29;;;;;;;49.67;24.70;;;0.20;99.90;;;;;;5026563;28;20211;-65
2022/03/03 00:29:57;;;;;;;51.47;26.03;;;0.20;99.90;;;;;;5015400;28;20284;-65
2022/03/03 00:32:25;;;;;;;51.23;24.90;;;0.20;99.90;;;;;;5028403;28;20200;-65
2022/03/03 00:34:54;;;;;;;50.10;25.20;;;0.20;99.90;;;;;;5028665;28;20765;-65
2022/03/03 00:37:22;;;;;;;56.07;25.63;;;0.20;99.90;;;;;;5027047;28;20269;-65
2022/03/03 00:39:51;;;;;;;55.30;25.90;;;0.20;99.90;;;;;;5023829;28;20205;-65
2022/03/03 00:42:20;;;;;;;51.43;25.57;;;0.20;99.90;;;;;;5029081;28;20204;-65
2022/03/03 00:44:49;;;;;;;45.77;25.20;;;0.20;99.90;;;;;;5035277;28;20284;-65
2022/03/03 00:47:17;;;;;;;50.27;25.77;;;0.30;99.90;;;;;;5023939;28;20216;-65
2022/03/03 00:49:45;;;;;;;52.50;25.60;;;0.30;99.90;;;;;;5028396;28;20770;-65
2022/03/03 00:52:14;;;;;;;49.73;24.83;;;0.20;99.90;;;;;;5016692;28;20288;-64
2022/03/03 00:54:42;;;;;;;47.23;24.57;;;0.20;99.90;;;;;;5028763;28;20216;-65
2022/03/03 00:57:10;;;;;;;50.43;24.90;;;0.20;99.90;;;;;;5024265;28;20288;-65
2022/03/03 00:59:40;;;;;;;43.67;22.33;;;0.10;99.90;;;;;;5022041;28;20228;-65
2022/03/03 01:02:08;;;;;;;41.43;21.53;;;0.10;99.90;;;;;;5027083;28;20283;-65
2022/03/03 01:04:37;;;;;;;50.37;21.90;;;0.10;99.90;;;;;;5029269;28;20213;-65
2022/03/03 01:07:06;;;;;;;47.43;22.80;;;0.10;99.90;;;;;;5031012;28;20316;-65
2022/03/03 01:09:34;;;;;;;40.30;20.77;;;0.00;99.90;;;;;;5033627;28;20397;-65
2022/03/03 01:12:03;;;;;;;39.67;21.33;;;0.00;99.90;;;;;;5023510;28;20297;-65
2022/03/03 01:14:32;;;;;;;51.23;22.77;;;0.00;99.90;;;;;;5025678;28;20663;-65
2022/03/03 01:17:01;;;;;;;41.20;22.13;;;0.00;99.90;;;;;;5016753;28;20201;-65
2022/03/03 01:19:31;;;;;;;45.60;22.70;;;-0.10;99.90;;;;;;5028933;28;20232;-65
2022/03/03 01:21:59;;;;;;;43.93;22.00;;;-0.10;99.90;;;;;;5028494;28;20205;-65
2022/03/03 01:24:28;;;;;;;42.73;23.80;;;-0.10;99.90;;;;;;5027402;28;20209;-65
2022/03/03 01:26:56;;;;;;;39.83;22.80;;;-0.20;99.90;;;;;;5021048;28;20213;-65
2022/03/03 01:29:24;;;;;;;44.97;22.17;;;-0.20;99.90;;;;;;5030323;28;20197;-65
2022/03/03 01:31:53;;;;;;;47.43;23.27;;;-0.20;99.90;;;;;;5023868;28;20221;-65
2022/03/03 01:34:23;;;;;;;45.17;22.73;;;-0.30;99.90;;;;;;5025275;28;20552;-65
2022/03/03 01:36:51;;;;;;;51.13;23.80;;;-0.20;99.90;;;;;;5029071;28;20281;-65
2022/03/03 01:39:19;;;;;;;47.83;24.07;;;-0.30;99.90;;;;;;5030329;28;20239;-65
2022/03/03 01:41:48;;;;;;;49.67;23.80;;;-0.30;99.90;;;;;;5014446;28;20224;-65
2022/03/03 01:44:16;;;;;;;42.20;22.27;;;-0.30;99.90;;;;;;5024487;28;20189;-65
2022/03/03 01:46:49;;;;;;;47.20;22.23;;;-0.30;99.90;;;;;;5027313;28;20204;-65
2022/03/03 01:49:18;;;;;;;44.37;23.37;;;-0.40;99.90;;;;;;5024476;28;20193;-65
2022/03/03 01:51:48;;;;;;;46.60;23.50;;;-0.40;99.90;;;;;;5027144;28;20596;-65
2022/03/03 01:54:17;;;;;;;49.73;23.03;;;-0.40;99.90;;;;;;5025935;28;20573;-65
2022/03/03 01:56:48;;;;;;;48.40;24.47;;;-0.40;99.90;;;;;;5023800;28;20291;-65
2022/03/03 01:59:16;;;;;;;49.80;23.90;;;-0.40;99.90;;;;;;5025850;28;20197;-65
2022/03/03 02:01:44;;;;;;;45.40;24.00;;;-0.40;99.90;;;;;;5019789;28;20922;-65
2022/03/03 02:04:13;;;;;;;47.40;23.57;;;-0.50;99.90;;;;;;5026357;28;20210;-65
2022/03/03 02:06:41;;;;;;;45.93;23.80;;;-0.50;99.90;;;;;;5027289;28;20618;-65
2022/03/03 02:09:11;;;;;;;50.13;24.33;;;-0.50;99.90;;;;;;5023532;28;20266;-65
2022/03/03 02:11:40;;;;;;;43.53;23.27;;;-0.60;99.90;;;;;;5026845;28;20292;-65
2022/03/03 02:14:08;;;;;;;48.97;24.33;;;-0.60;99.90;;;;;;5022849;28;20277;-65
2022/03/03 02:16:36;;;;;;;44.87;21.80;;;-0.60;99.90;;;;;;5020487;28;20220;-65
2022/03/03 02:19:05;;;;;;;47.93;23.70;;;-0.60;99.90;;;;;;5023855;28;20904;-65
2022/03/03 02:21:35;;;;;;;45.87;22.37;;;-0.60;99.90;;;;;;5027778;28;20696;-65
2022/03/03 02:24:05;;;;;;;39.37;20.37;;;-0.60;99.90;;;;;;5027935;28;20289;-65
2022/03/03 02:26:35;;;;;;;43.47;22.53;;;-0.70;99.90;;;;;;5025202;28;20268;-65
2022/03/03 02:29:03;;;;;;;44.97;22.53;;;-0.70;99.90;;;;;;5011351;28;20210;-65
2022/03/03 02:31:31;;;;;;;53.57;23.50;;;-0.70;99.90;;;;;;5031117;28;20672;-65
2022/03/03 02:34:00;;;;;;;52.90;24.47;;;-0.70;99.90;;;;;;5034379;28;20232;-65
2022/03/03 02:36:30;;;;;;;50.17;24.13;;;-0.70;99.90;;;;;;5025667;28;20211;-65
2022/03/03 02:39:00;;;;;;;55.63;24.77;;;-0.80;99.90;;;;;;5029896;28;20276;-65
2022/03/03 02:41:29;;;;;;;56.43;24.67;;;-0.80;99.90;;;;;;5028184;28;20198;-65
2022/03/03 02:43:59;;;;;;;53.93;23.87;;;-0.80;99.90;;;;;;5029163;28;20323;-66
2022/03/03 02:46:27;;;;;;;62.13;25.50;;;-0.80;99.90;;;;;;5026408;28;20651;-65
2022/03/03 02:48:56;;;;;;;61.40;25.60;;;-0.90;99.90;;;;;;5030924;28;20304;-66
2022/03/03 02:51:24;;;;;;;55.57;23.57;;;-0.90;99.90;;;;;;5032609;28;20233;-65
2022/03/03 02:53:53;;;;;;;53.63;23.03;;;-0.90;99.90;;;;;;5025670;28;20300;-66
2022/03/03 02:56:23;;;;;;;52.80;23.10;;;-0.80;99.90;;;;;;5032207;28;20224;-65
2022/03/03 02:58:51;;;;;;;46.63;21.93;;;-0.90;99.90;;;;;;5028004;28;20267;-66
2022/03/03 03:01:20;;;;;;;43.33;21.93;;;-0.90;99.90;;;;;;5028683;28;20362;-65
2022/03/03 03:03:48;;;;;;;49.53;23.47;;;-0.90;99.90;;;;;;5025163;28;20204;-65
2022/03/03 03:06:16;;;;;;;45.23;22.10;;;-1.00;99.90;;;;;;5028974;28;20323;-65
2022/03/03 03:08:45;;;;;;;47.27;23.47;;;-1.00;99.90;;;;;;5034443;28;20233;-65
2022/03/03 03:11:13;;;;;;;50.80;23.17;;;-1.00;99.90;;;;;;5028560;28;20225;-66
2022/03/03 03:13:43;;;;;;;51.53;23.53;;;-0.90;99.90;;;;;;5024967;28;20699;-65
2022/03/03 03:16:11;;;;;;;50.90;23.13;;;-0.90;99.90;;;;;;5030374;28;20281;-65
2022/03/03 03:18:40;;;;;;;47.90;22.30;;;-0.90;99.90;;;;;;5022835;28;20235;-65
2022/03/03 03:21:08;;;;;;;49.17;23.80;;;-0.90;99.90;;;;;;5028197;28;20631;-65
2022/03/03 03:23:37;;;;;;;47.90;22.00;;;-0.90;99.90;;;;;;5030588;28;20228;-65
2022/03/03 03:26:05;;;;;;;46.93;22.97;;;-1.00;99.90;;;;;;5026900;28;20268;-66
2022/03/03 03:28:34;;;;;;;44.13;21.67;;;-1.10;99.90;;;;;;5025821;28;20707;-65
2022/03/03 03:31:03;;;;;;;45.83;21.93;;;-1.10;99.90;;;;;;5021500;28;20225;-65
2022/03/03 03:33:32;;;;;;;47.00;23.27;;;-1.10;99.90;;;;;;5030155;28;20671;-65
2022/03/03 03:36:00;;;;;;;49.57;22.93;;;-1.10;99.90;;;;;;5028508;28;20197;-65
2022/03/03 03:38:28;;;;;;;49.23;23.80;;;-1.00;99.90;;;;;;5030110;28;20190;-65
2022/03/03 03:40:56;;;;;;;44.20;21.47;;;-1.00;99.90;;;;;;5026859;28;20284;-65
2022/03/03 03:43:25;;;;;;;49.57;21.93;;;-1.00;99.90;;;;;;5030687;28;20273;-65
2022/03/03 03:45:53;;;;;;;51.63;23.47;;;-1.10;99.90;;;;;;5027918;28;20292;-65
2022/03/03 03:48:23;;;;;;;45.67;21.07;;;-1.20;99.90;;;;;;5025361;28;20217;-65
2022/03/03 03:50:52;;;;;;;46.30;22.03;;;-1.20;99.90;;;;;;5025711;28;20228;-65
2022/03/03 03:53:20;;;;;;;47.37;22.40;;;-1.20;99.90;;;;;;5030702;28;20196;-65
2022/03/03 03:55:49;;;;;;;42.47;20.80;;;-1.20;99.90;;;;;;5026672;28;20217;-65
2022/03/03 03:58:17;;;;;;;45.27;21.83;;;-1.20;99.90;;;;;;5029154;28;20276;-65
2022/03/03 04:00:46;;;;;;;44.70;21.67;;;-1.20;99.90;;;;;;5030734;28;20606;-65
2022/03/03 04:03:15;;;;;;;43.47;21.60;;;-1.20;99.90;;;;;;5027562;28;20235;-65
2022/03/03 04:05:45;;;;;;;45.33;21.70;;;-1.30;99.90;;;;;;5027376;28;20212;-65
2022/03/03 04:08:14;;;;;;;44.53;21.93;;;-1.30;99.90;;;;;;5029864;28;20260;-65
2022/03/03 04:10:42;;;;;;;44.23;21.00;;;-1.30;99.90;;;;;;5025154;28;20344;-65
2022/03/03 04:13:11;;;;;;;43.20;20.30;;;-1.30;99.90;;;;;;5024936;28;20733;-65
2022/03/03 04:15:39;;;;;;;43.30;21.87;;;-1.30;99.90;;;;;;5023137;28;20201;-65
2022/03/03 04:18:07;;;;;;;43.87;20.90;;;-1.30;99.90;;;;;;5038997;28;20627;-65
2022/03/03 04:20:36;;;;;;;45.47;21.30;;;-1.40;99.90;;;;;;5025395;28;20743;-65
2022/03/03 04:23:05;;;;;;;45.40;21.00;;;-1.40;99.90;;;;;;5031669;28;20205;-65
2022/03/03 04:25:34;;;;;;;44.03;20.93;;;-1.40;99.90;;;;;;5032113;28;20186;-65
2022/03/03 04:28:03;;;;;;;51.53;22.33;;;-1.40;99.90;;;;;;5031731;28;20692;-65
2022/03/03 04:30:31;;;;;;;44.97;21.30;;;-1.50;99.90;;;;;;5028465;28;20174;-65
2022/03/03 04:33:00;;;;;;;49.70;22.53;;;-1.40;99.90;;;;;;5026702;28;20202;-65
2022/03/03 04:35:29;;;;;;;48.20;22.77;;;-1.40;99.90;;;;;;5029383;28;20838;-65
2022/03/03 04:37:57;;;;;;;49.93;23.80;;;-1.40;99.90;;;;;;5025935;28;20260;-65
2022/03/03 04:40:27;;;;;;;51.40;23.70;;;-1.30;99.90;;;;;;5024732;28;20247;-65
2022/03/03 04:42:55;;;;;;;50.40;23.07;;;-1.30;99.90;;;;;;5033452;28;20271;-65
2022/03/03 04:45:24;;;;;;;44.97;22.40;;;-1.30;99.90;;;;;;5028897;28;20240;-65
2022/03/03 04:47:52;;;;;;;49.07;22.57;;;-1.40;99.90;;;;;;5025144;28;20284;-65
2022/03/03 04:50:21;;;;;;;47.40;22.17;;;-1.40;99.90;;;;;;5023445;28;20213;-65
2022/03/03 04:52:49;;;;;;;47.27;23.33;;;-1.40;99.90;;;;;;5026362;28;20209;-65
2022/03/03 04:55:20;;;;;;;45.27;21.53;;;-1.40;99.90;;;;;;5022795;28;20189;-65
2022/03/03 04:57:49;;;;;;;45.87;22.13;;;-1.50;99.90;;;;;;5031239;28;20226;-65
2022/03/03 05:00:18;;;;;;;48.87;23.23;;;-1.50;99.90;;;;;;5029390;28;20194;-65
2022/03/03 05:03:11;;;;;;;56.50;24.57;;;-1.50;99.90;;;;;;5066568;28;20184;-65
2022/03/03 05:05:39;;;;;;;43.87;22.33;;;-1.50;99.90;;;;;;5053184;28;20199;-65
2022/03/03 05:08:08;;;;;;;53.00;24.00;;;-1.50;99.90;;;;;;5072132;28;20314;-64
2022/03/03 05:10:37;;;;;;;53.93;25.23;;;-1.50;99.90;;;;;;5068466;28;20219;-67
2022/03/03 05:13:06;;;;;;;54.00;24.47;;;-1.60;99.90;;;;;;5076824;28;20198;-65
2022/03/03 05:15:35;;;;;;;49.20;23.20;;;-1.60;99.90;;;;;;5064101;28;20229;-66
2022/03/03 05:18:04;;;;;;;56.33;23.13;;;-1.60;99.90;;;;;;5069539;28;20207;-66
2022/03/03 05:20:33;;;;;;;48.03;22.00;;;-1.60;99.90;;;;;;5030100;28;20219;-66
2022/03/03 05:23:02;;;;;;;50.90;22.63;;;-1.60;99.90;;;;;;5071932;28;20283;-66
2022/03/03 05:25:30;;;;;;;49.77;23.63;;;-1.70;99.90;;;;;;5072318;28;20282;-66
2022/03/03 05:28:00;;;;;;;49.97;23.00;;;-1.70;99.90;;;;;;5051792;28;20279;-66
2022/03/03 05:30:30;;;;;;;46.83;22.83;;;-1.70;99.90;;;;;;5080375;28;20196;-66
2022/03/03 05:32:59;;;;;;;49.37;23.07;;;-1.70;99.90;;;;;;5068207;28;20275;-66
2022/03/03 05:35:27;;;;;;;52.00;22.97;;;-1.80;99.90;;;;;;5073307;28;20201;-66
2022/03/03 05:37:56;;;;;;;51.40;23.17;;;-1.80;99.90;;;;;;5058890;28;20196;-66
2022/03/03 05:40:24;;;;;;;46.10;22.27;;;-1.80;99.90;;;;;;5067893;28;20274;-66
2022/03/03 05:42:53;;;;;;;51.73;23.37;;;-1.80;99.90;;;;;;5072116;28;20243;-66
2022/03/03 05:45:21;;;;;;;48.57;23.07;;;-1.80;99.90;;;;;;5071195;28;20224;-66
2022/03/03 05:47:53;;;;;;;52.23;23.50;;;-1.80;99.90;;;;;;5077724;28;20187;-66
2022/03/03 05:50:21;;;;;;;53.57;24.43;;;-1.80;99.90;;;;;;5072098;28;20273;-66
2022/03/03 05:52:50;;;;;;;54.97;24.57;;;-1.70;99.90;;;;;;5073138;28;20230;-66
2022/03/03 05:55:18;;;;;;;57.07;24.63;;;-1.70;99.90;;;;;;5072871;28;20205;-66
2022/03/03 05:57:52;;;;;;;58.47;25.53;;;-1.70;99.90;;;;;;5072051;28;20286;-66
2022/03/03 06:00:21;;;;;;;56.43;23.53;;;-1.70;99.90;;;;;;5078455;28;20222;-66
2022/03/03 06:02:52;;;;;;;51.27;23.10;;;-1.70;99.90;;;;;;5068645;28;20200;-66
2022/03/03 06:05:24;;;;;;;58.57;24.10;;;-1.80;99.90;;;;;;5056666;28;20549;-66
2022/03/03 06:07:54;;;;;;;57.57;25.00;;;-1.80;99.90;;;;;;5071446;28;20235;-66
2022/03/03 06:10:24;;;;;;;58.87;26.43;;;-1.70;99.90;;;;;;5076390;28;20216;-66
2022/03/03 06:12:59;;;;;;;60.07;27.40;;;-1.60;99.90;;;;;;5051530;28;20804;-66
2022/03/03 06:15:29;;;;;;;66.30;27.60;;;-1.40;99.90;;;;;;5076769;28;20984;-66
2022/03/03 06:18:00;;;;;;;59.23;26.77;;;-1.30;99.90;;;;;;5049683;28;20226;-66
2022/03/03 06:20:30;;;;;;;57.60;28.03;;;-1.30;99.90;;;;;;5073071;28;20713;-66
2022/03/03 06:22:58;;;;;;;60.33;25.73;;;-1.30;99.90;;;;;;5073116;28;20310;-66
2022/03/03 06:25:27;;;;;;;59.17;26.47;;;-1.30;99.90;;;;;;5070337;28;20204;-66
2022/03/03 06:27:56;;;;;;;61.93;25.80;;;-1.40;99.90;;;;;;5070114;28;20207;-66
2022/03/03 06:30:24;;;;;;;53.10;25.23;;;-1.40;99.90;;;;;;5071454;28;20265;-66
2022/03/03 06:32:52;;;;;;;61.40;26.73;;;-1.50;99.90;;;;;;5072470;28;20220;-66
2022/03/03 06:35:23;;;;;;;59.20;27.20;;;-1.50;99.90;;;;;;5080523;28;20196;-66
2022/03/03 06:37:51;;;;;;;60.90;26.03;;;-1.50;99.90;;;;;;5072648;28;20196;-66
2022/03/03 06:40:19;;;;;;;61.00;25.77;;;-1.50;99.90;;;;;;5055559;28;20733;-66
2022/03/03 06:42:48;;;;;;;60.17;25.33;;;-1.50;99.90;;;;;;5068762;28;20197;-66
2022/03/03 06:45:18;;;;;;;64.37;26.93;;;-1.50;99.90;;;;;;5065240;28;20207;-66
2022/03/03 06:47:48;;;;;;;55.63;25.07;;;-1.50;99.90;;;;;;5060081;28;20589;-66
2022/03/03 06:50:17;;;;;;;59.33;25.47;;;-1.50;99.90;;;;;;5070574;28;20753;-66
2022/03/03 06:52:49;;;;;;;60.13;26.93;;;-1.50;99.90;;;;;;5074255;28;20262;-66
2022/03/03 06:55:22;;;;;;;66.83;26.70;;;-1.50;99.90;;;;;;5062789;28;20292;-66
2022/03/03 06:57:52;;;;;;;72.67;28.43;;;-1.40;99.90;;;;;;5063788;28;20189;-66
2022/03/03 07:00:23;;;;;;;58.80;26.57;;;-1.30;99.90;;;;;;5063367;28;20259;-66
2022/03/03 07:02:53;;;;;;;56.23;25.00;;;-1.20;99.90;;;;;;5069683;28;20245;-66
2022/03/03 07:05:23;;;;;;;59.83;27.13;;;-1.20;99.90;;;;;;5057055;28;20204;-67
2022/03/03 07:07:54;;;;;;;62.40;29.33;;;-1.20;99.90;;;;;;5081247;28;20231;-66
2022/03/03 07:10:25;;;;;;;54.43;26.47;;;-1.10;99.90;;;;;;5068211;28;20203;-66
2022/03/03 07:12:56;;;;;;;59.90;27.57;;;-1.10;99.90;;;;;;5050991;28;20188;-66
2022/03/03 07:15:25;;;;;;;52.33;26.80;;;-1.00;99.90;;;;;;5052547;28;20663;-66
2022/03/03 07:18:01;;;;;;;68.43;30.10;;;-1.00;99.90;;;;;;5066651;28;20251;-65
2022/03/03 07:20:39;;;;;;;67.00;28.83;;;-0.80;99.90;;;;;;5072247;28;20610;-66
2022/03/03 07:23:13;;;;;;;57.87;29.50;;;-0.70;99.90;;;;;;5068909;28;20265;-65
2022/03/03 07:25:49;;;;;;;67.57;28.83;;;-0.60;99.90;;;;;;5065898;28;20203;-66
2022/03/03 07:28:20;;;;;;;62.30;29.37;;;-0.60;99.90;;;;;;5068460;28;20257;-66
2022/03/03 07:30:51;;;;;;;67.83;31.57;;;-0.50;99.90;;;;;;5065952;28;20217;-66
2022/03/03 07:33:24;;;;;;;72.10;31.23;;;-0.40;99.90;;;;;;5074759;28;20243;-65
2022/03/03 07:35:57;;;;;;;70.40;31.90;;;-0.20;99.90;;;;;;5065219;28;20560;-66
2022/03/03 07:38:33;;;;;;;69.27;30.70;;;0.20;99.90;;;;;;5066545;28;20207;-65
2022/03/03 07:41:03;;;;;;;63.83;29.67;;;0.80;99.90;;;;;;5067419;28;20604;-66
2022/03/03 07:43:32;;;;;;;63.07;27.73;;;1.30;99.90;;;;;;5071609;28;20231;-66
2022/03/03 07:46:03;;;;;;;46.47;25.33;;;1.90;99.90;;;;;;5067943;28;20907;-66
2022/03/03 07:48:33;;;;;;;53.27;24.63;;;2.40;99.90;;;;;;5053042;28;20195;-66
2022/03/03 07:51:02;;;;;;;41.40;22.93;;;3.00;99.90;;;;;;5067792;28;20218;-67
2022/03/03 07:53:32;;;;;;;40.87;22.60;;;3.60;99.90;;;;;;5060760;28;20242;-66
2022/03/03 07:56:04;;;;;;;47.77;23.30;;;4.20;99.90;;;;;;5071535;28;20219;-66
2022/03/03 07:58:38;;;;;;;48.23;23.37;;;4.70;99.90;;;;;;5074470;28;20780;-66
2022/03/03 08:01:09;;;;;;;43.43;21.80;;;5.20;99.90;;;;;;5071305;28;20194;-66
2022/03/03 08:03:41;;;;;;;43.83;21.47;;;5.70;99.90;;;;;;5066632;28;20213;-66
2022/03/03 08:06:13;;;;;;;52.30;28.23;;;6.00;99.90;;;;;;5064713;28;20253;-66
2022/03/03 08:08:43;;;;;;;48.20;27.07;;;6.30;99.90;;;;;;5058875;28;20277;-66
2022/03/03 08:11:11;;;;;;;47.40;22.80;;;6.50;99.90;;;;;;5051248;28;20297;-66
2022/03/03 08:13:40;;;;;;;41.20;21.80;;;6.60;99.90;;;;;;5033216;28;20207;-66
2022/03/03 08:16:08;;;;;;;37.33;21.60;;;7.10;99.90;;;;;;5030875;28;20213;-66
2022/03/03 08:18:37;;;;;;;46.57;22.13;;;7.60;99.90;;;;;;5033591;28;20561;-66
2022/03/03 08:21:07;;;;;;;40.60;21.07;;;8.10;99.90;;;;;;5049378;28;20606;-66
2022/03/03 08:23:35;;;;;;;44.30;21.90;;;8.30;99.90;;;;;;5049553;28;20197;-66
2022/03/03 08:26:06;;;;;;;36.83;21.40;;;8.70;99.90;;;;;;5056573;28;20192;-66
2022/03/03 08:28:34;;;;;;;38.20;22.17;;;9.00;99.90;;;;;;5054899;28;20196;-66
2022/03/03 08:31:04;;;;;;;37.43;21.37;;;9.00;99.90;;;;;;5056283;28;20244;-66
2022/03/03 08:33:53;;;;;;;37.73;21.83;;;9.00;99.90;;;;;;5056576;28;20676;-66
2022/03/03 08:36:26;;;;;;;34.40;20.77;;;9.00;99.90;;;;;;5052871;28;20739;-66
2022/03/03 08:39:02;;;;;;;34.07;20.00;;;9.10;99.90;;;;;;5048871;28;20192;-66
2022/03/03 08:41:36;;;;;;;39.33;21.97;;;9.30;99.90;;;;;;5033346;28;20193;-66
2022/03/03 08:44:07;;;;;;;33.63;21.00;;;9.60;99.90;;;;;;5012694;28;20676;-66
2022/03/03 08:46:37;;;;;;;39.30;21.10;;;10.00;99.90;;;;;;5039362;28;20197;-66
2022/03/03 08:49:08;;;;;;;31.57;20.93;;;10.30;99.90;;;;;;5035458;28;20218;-66
2022/03/03 08:51:37;;;;;;;38.70;21.80;;;10.50;99.90;;;;;;5045526;28;20235;-65
2022/03/03 08:54:06;;;;;;;39.27;21.60;;;10.50;99.90;;;;;;5044944;28;20207;-65
2022/03/03 08:56:36;;;;;;;32.57;21.03;;;10.70;99.90;;;;;;5030434;28;20198;-65
2022/03/03 08:59:04;;;;;;;35.67;21.00;;;11.00;99.90;;;;;;5027353;28;20197;-65
2022/03/03 09:01:33;;;;;;;38.30;19.83;;;11.20;99.90;;;;;;5041273;28;20197;-66
2022/03/03 09:04:06;;;;;;;36.97;20.33;;;11.50;99.90;;;;;;5043132;28;20233;-65
2022/03/03 09:06:35;;;;;;;31.20;20.10;;;11.80;99.90;;;;;;5034588;28;20205;-65
2022/03/03 09:09:03;;;;;;;34.47;19.60;;;12.00;99.90;;;;;;5064062;28;20223;-65
2022/03/03 09:11:32;;;;;;;34.03;19.37;;;12.20;99.90;;;;;;5044820;28;20270;-65
2022/03/03 09:14:02;;;;;;;34.17;19.10;;;12.40;99.90;;;;;;5065295;28;20188;-65
2022/03/03 09:16:30;;;;;;;36.33;19.57;;;12.50;99.90;;;;;;5068348;28;20204;-65
2022/03/03 09:18:59;;;;;;;32.97;19.00;;;12.50;99.90;;;;;;5061501;28;20616;-65
2022/03/03 09:21:28;;;;;;;29.23;18.53;;;12.50;99.90;;;;;;5068165;28;20188;-65
2022/03/03 09:23:57;;;;;;;30.87;19.40;;;12.60;99.90;;;;;;5067746;28;20681;-65
2022/03/03 09:26:27;;;;;;;29.57;18.63;;;12.70;99.90;;;;;;5058288;28;20544;-65
2022/03/03 09:28:56;;;;;;;32.27;18.90;;;12.90;99.90;;;;;;5055237;28;20299;-66
2022/03/03 09:31:26;;;;;;;29.20;18.80;;;13.10;99.90;;;;;;5052924;28;20239;-65
2022/03/03 09:33:55;;;;;;;30.60;19.70;;;13.40;99.90;;;;;;5059998;28;20661;-65
2022/03/03 09:36:23;;;;;;;29.53;18.77;;;13.30;99.90;;;;;;5066626;28;20561;-65
2022/03/03 09:38:52;;;;;;;29.47;19.67;;;13.60;99.90;;;;;;5058700;28;20261;-65
2022/03/03 09:41:20;;;;;;;34.57;18.53;;;13.80;99.90;;;;;;5040513;28;20587;-66
2022/03/03 09:43:49;;;;;;;31.47;19.30;;;13.70;99.90;;;;;;5057918;28;20643;-65
2022/03/03 09:46:18;;;;;;;35.93;20.23;;;13.70;99.90;;;;;;5057772;28;20200;-66
2022/03/03 09:48:48;;;;;;;33.00;19.07;;;13.70;99.90;;;;;;5054094;28;20192;-65
2022/03/03 09:51:16;;;;;;;32.27;20.90;;;13.70;99.90;;;;;;5043717;28;20741;-65
2022/03/03 09:53:49;;;;;;;33.13;20.67;;;13.70;99.90;;;;;;5061146;28;20604;-65
2022/03/03 09:56:17;;;;;;;33.90;21.30;;;13.40;99.90;;;;;;5058656;28;20204;-65
2022/03/03 09:58:46;;;;;;;38.07;22.60;;;13.40;99.90;;;;;;5035108;28;20207;-65
2022/03/03 10:01:17;;;;;;;43.10;22.93;;;13.60;99.90;;;;;;5058154;28;20692;-65
2022/03/03 10:03:48;;;;;;;39.53;22.77;;;13.80;99.90;;;;;;5057730;28;20678;-66
2022/03/03 10:06:21;;;;;;;40.83;22.97;;;13.90;99.90;;;;;;5042427;28;20297;-65
2022/03/03 10:08:51;;;;;;;39.60;22.90;;;14.50;99.90;;;;;;5068044;28;20292;-65
2022/03/03 10:11:20;;;;;;;44.20;23.67;;;14.60;99.90;;;;;;5049816;28;20298;-65
2022/03/03 10:13:50;;;;;;;38.83;22.23;;;14.60;99.90;;;;;;5053189;28;20250;-65
2022/03/03 10:16:24;;;;;;;36.53;23.60;;;14.60;99.90;;;;;;5062321;28;20572;-66
2022/03/03 10:19:01;;;;;;;34.13;22.43;;;14.90;99.90;;;;;;5063019;28;20834;-65
2022/03/03 10:21:30;;;;;;;42.53;25.67;;;15.00;99.90;;;;;;5057081;28;20299;-65
2022/03/03 10:23:59;;;;;;;36.43;23.43;;;15.20;99.90;;;;;;5054686;28;20211;-65
2022/03/03 10:26:38;;;;;;;42.53;24.53;;;15.00;99.90;;;;;;5054883;28;20189;-65
2022/03/03 10:29:17;;;;;;;37.80;24.37;;;14.90;99.90;;;;;;5061141;28;20907;-65
2022/03/03 10:31:49;;;;;;;43.23;24.27;;;15.00;99.90;;;;;;5067621;28;20267;-65
2022/03/03 10:34:22;;;;;;;41.80;23.60;;;15.20;99.90;;;;;;5063885;28;20198;-65
2022/03/03 10:37:01;;;;;;;36.40;23.37;;;15.20;99.90;;;;;;5068188;28;20188;-65
2022/03/03 10:39:41;;;;;;;35.57;22.57;;;15.60;99.90;;;;;;5058378;28;20204;-65
2022/03/03 10:42:16;;;;;;;36.37;21.70;;;16.20;99.90;;;;;;5059774;28;20276;-66
2022/03/03 10:44:45;;;;;;;33.17;21.13;;;16.40;99.90;;;;;;5044408;28;20812;-66
2022/03/03 10:47:15;;;;;;;39.40;20.90;;;16.70;99.90;;;;;;5062495;28;20279;-66
2022/03/03 10:49:48;;;;;;;36.30;22.13;;;17.00;99.90;;;;;;5067053;28;22081;-66
2022/03/03 10:52:18;;;;;;;39.50;21.60;;;17.30;99.90;;;;;;5068015;28;20273;-66
2022/03/03 10:54:55;;;;;;;37.07;22.57;;;17.20;99.90;;;;;;5071927;28;20195;-66
2022/03/03 10:57:31;;;;;;;35.53;22.30;;;17.00;99.90;;;;;;5073242;28;20646;-66
2022/03/03 11:00:02;;;;;;;35.03;22.40;;;17.00;99.90;;;;;;5067229;28;20666;-66
2022/03/03 11:02:34;;;;;;;35.93;22.50;;;16.90;99.90;;;;;;5070351;28;20279;-66
2022/03/03 11:05:42;;;;;;;39.20;23.40;;;16.80;99.90;;;;;;5064589;28;20230;-66
2022/03/03 11:08:13;;;;;;;35.50;23.13;;;17.20;99.90;;;;;;5074865;28;20693;-66
2022/03/03 11:10:42;;;;;;;38.37;23.73;;;17.20;99.90;;;;;;5047374;28;20284;-66
2022/03/03 11:13:10;;;;;;;42.47;22.87;;;16.90;99.90;;;;;;5074443;28;20646;-65
2022/03/03 11:15:41;;;;;;;35.17;22.20;;;16.90;99.90;;;;;;5063356;28;20211;-65
2022/03/03 11:18:10;;;;;;;36.93;22.30;;;17.00;99.90;;;;;;5057891;28;20207;-65
2022/03/03 11:20:38;;;;;;;36.30;21.43;;;17.00;99.90;;;;;;5058265;28;20751;-65
2022/03/03 11:23:08;;;;;;;37.07;20.87;;;16.70;99.90;;;;;;5065402;28;20192;-65
2022/03/03 11:25:37;;;;;;;34.27;21.37;;;16.90;99.90;;;;;;5062975;28;20205;-65
2022/03/03 11:28:08;;;;;;;37.13;21.90;;;17.20;99.90;;;;;;5045663;28;20254;-65
2022/03/03 11:30:37;;;;;;;34.43;21.60;;;17.30;99.90;;;;;;5037591;28;20269;-65
2022/03/03 11:33:26;;;;;;;33.37;21.03;;;17.20;99.90;;;;;;5053230;28;20291;-65
2022/03/03 11:36:00;;;;;;;34.07;22.13;;;17.00;99.90;;;;;;5071776;28;21080;-66
2022/03/03 11:38:46;;;;;;;34.77;22.30;;;17.10;99.90;;;;;;5068455;28;20289;-65
2022/03/03 11:41:14;;;;;;;38.27;23.33;;;17.40;99.90;;;;;;5058583;28;20270;-66
2022/03/03 11:43:48;;;;;;;37.70;21.93;;;17.30;99.90;;;;;;5051078;28;20242;-65
2022/03/03 11:46:47;;;;;;;34.00;22.83;;;17.40;99.90;;;;;;5063872;28;20554;-66
2022/03/03 11:49:18;;;;;;;37.13;22.83;;;17.40;99.90;;;;;;5059697;28;20197;-66
2022/03/03 11:51:49;;;;;;;37.67;22.07;;;17.50;99.90;;;;;;5044753;28;20220;-66
2022/03/03 11:54:30;;;;;;;40.47;21.83;;;17.40;99.90;;;;;;5062999;28;20212;-66
2022/03/03 11:57:27;;;;;;;34.67;22.10;;;17.40;99.90;;;;;;5067221;28;20207;-66
2022/03/03 12:00:02;;;;;;;32.03;22.13;;;17.20;99.90;;;;;;5025381;28;20204;-66
2022/03/03 12:02:34;;;;;;;34.93;21.87;;;17.10;99.90;;;;;;5072792;28;20219;-65
2022/03/03 12:05:34;;;;;;;33.67;22.37;;;17.10;99.90;;;;;;5054283;28;20196;-66
2022/03/03 12:08:05;;;;;;;37.87;22.87;;;17.30;99.90;;;;;;5046915;28;20295;-65
2022/03/03 12:10:35;;;;;;;37.90;21.87;;;16.90;99.90;;;;;;5062210;28;20350;-65
2022/03/03 12:13:24;;;;;;;34.50;22.50;;;17.00;99.90;;;;;;5062706;28;20293;-66
2022/03/03 12:16:23;;;;;;;34.03;21.57;;;17.00;99.90;;;;;;5067905;28;20216;-66
2022/03/03 12:19:14;;;;;;;34.50;20.60;;;17.30;99.90;;;;;;5042578;28;20283;-65
2022/03/03 12:21:44;;;;;;;39.37;21.97;;;17.40;99.90;;;;;;5057585;28;20654;-66
2022/03/03 12:24:33;;;;;;;34.10;20.73;;;17.10;99.90;;;;;;5027604;28;20196;-66
2022/03/03 12:27:15;;;;;;;30.70;19.97;;;17.10;99.90;;;;;;5061183;28;20611;-65
2022/03/03 12:29:59;;;;;;;34.60;20.10;;;17.50;99.90;;;;;;5057648;28;20200;-64
2022/03/03 12:32:45;;;;;;;34.87;20.27;;;17.40;99.90;;;;;;5065517;28;20220;-64
2022/03/03 12:35:33;;;;;;;39.53;21.53;;;17.20;99.90;;;;;;5046372;28;20654;-64
2022/03/03 12:38:04;;;;;;;35.77;21.77;;;16.90;99.90;;;;;;5072288;28;20203;-66
2022/03/03 12:40:33;;;;;;;37.40;20.87;;;17.00;99.90;;;;;;5065713;28;20188;-64
